createdAt,value
2023-05-12T00:00:00.603Z,0
2023-05-12T00:05:00.863Z,0
2023-05-12T00:10:00.919Z,0
2023-05-12T00:15:00.965Z,0
2023-05-12T00:20:00.747Z,0
2023-05-12T00:25:00.497Z,0
2023-05-12T00:30:00.803Z,0
2023-05-12T00:35:01.037Z,0
2023-05-12T00:40:00.980Z,0
2023-05-12T00:45:00.696Z,0
2023-05-12T00:50:00.642Z,0
2023-05-12T00:55:01.285Z,0
2023-05-12T01:00:00.688Z,0
2023-05-12T01:05:01.063Z,0
2023-05-12T01:10:00.632Z,0
2023-05-12T01:15:01.365Z,0
2023-05-12T01:20:00.785Z,0
2023-05-12T01:25:00.498Z,0
2023-05-12T01:30:00.767Z,0
2023-05-12T01:35:01.192Z,0
2023-05-12T01:40:00.559Z,0
2023-05-12T01:45:02.747Z,0
2023-05-12T01:50:00.538Z,0
2023-05-12T01:55:01.258Z,0
2023-05-12T02:00:02.446Z,0
2023-05-12T02:05:00.521Z,0
2023-05-12T02:10:00.537Z,0
2023-05-12T02:15:01.258Z,0
2023-05-12T02:20:02.601Z,0
2023-05-12T02:25:00.834Z,0
2023-05-12T02:30:01.982Z,0
2023-05-12T02:35:00.933Z,0
2023-05-12T02:40:01.195Z,0
2023-05-12T02:45:01.189Z,0
2023-05-12T02:50:00.538Z,0
2023-05-12T02:55:01.368Z,0
2023-05-12T03:00:01.474Z,0
2023-05-12T03:05:00.531Z,0
2023-05-12T03:10:01.053Z,0
2023-05-12T03:15:02.006Z,0
2023-05-12T03:20:00.558Z,0
2023-05-12T03:25:00.895Z,0
2023-05-12T03:30:00.801Z,0
2023-05-12T03:35:00.877Z,11
2023-05-12T03:40:00.957Z,11
2023-05-12T03:45:00.995Z,18
2023-05-12T03:50:01.094Z,25
2023-05-12T03:55:00.994Z,46
2023-05-12T04:00:00.719Z,91
2023-05-12T04:05:01.149Z,77
2023-05-12T04:10:01.212Z,77
2023-05-12T04:15:01.111Z,77
2023-05-12T04:20:01.184Z,128
2023-05-12T04:25:00.918Z,151
2023-05-12T04:30:00.704Z,210
2023-05-12T04:35:01.083Z,210
2023-05-12T04:40:01.117Z,296
2023-05-12T04:45:01.100Z,296
2023-05-12T04:50:02.974Z,485
2023-05-12T04:55:00.725Z,799
2023-05-12T05:00:01.034Z,702
2023-05-12T05:05:01.115Z,799
2023-05-12T05:10:01.782Z,706
2023-05-12T05:15:00.746Z,1015
2023-05-12T05:20:00.897Z,1644
2023-05-12T05:25:01.913Z,1622
2023-05-12T05:30:00.762Z,1426
2023-05-12T05:35:00.896Z,1121
2023-05-12T05:40:00.842Z,1121
2023-05-12T05:45:02.051Z,1426
2023-05-12T05:50:00.506Z,2345
2023-05-12T05:55:01.342Z,2068
2023-05-12T06:00:01.398Z,2332
2023-05-12T06:05:00.828Z,2656
2023-05-12T06:10:00.638Z,2987
2023-05-12T06:15:01.153Z,3839
2023-05-12T06:20:01.029Z,3839
2023-05-12T06:25:00.785Z,3839
2023-05-12T06:30:00.668Z,4952
2023-05-12T06:35:01.078Z,4952
2023-05-12T06:40:00.936Z,4952
2023-05-12T06:45:00.560Z,5587
2023-05-12T06:50:00.989Z,6320
2023-05-12T06:55:00.883Z,6249
2023-05-12T07:00:01.223Z,7055
2023-05-12T07:05:00.643Z,7952
2023-05-12T07:10:01.025Z,8950
2023-05-12T07:15:00.529Z,10088
2023-05-12T07:20:00.987Z,11151
2023-05-12T07:25:00.761Z,11151
2023-05-12T07:30:00.941Z,9867
2023-05-12T07:35:00.695Z,13561
2023-05-12T07:40:00.719Z,16630
2023-05-12T07:45:00.866Z,18880
2023-05-12T07:50:00.963Z,18880
2023-05-12T07:55:01.365Z,21582
2023-05-12T08:00:00.722Z,21582
2023-05-12T08:05:00.554Z,21267
2023-05-12T08:10:00.563Z,30033
2023-05-12T08:15:02.152Z,17766
2023-05-12T08:20:01.000Z,23556
2023-05-12T08:25:00.560Z,31761
2023-05-12T08:30:01.094Z,30711
2023-05-12T08:35:01.408Z,25474
2023-05-12T08:40:00.543Z,26934
2023-05-12T08:45:01.069Z,18298
2023-05-12T08:50:00.801Z,14381
2023-05-12T08:55:01.055Z,18565
2023-05-12T09:00:01.437Z,28229
2023-05-12T09:05:01.031Z,17816
2023-05-12T09:10:00.552Z,11210
2023-05-12T09:15:01.138Z,15477
2023-05-12T09:20:01.047Z,9318
2023-05-12T09:25:00.679Z,9318
2023-05-12T09:30:00.591Z,23153
2023-05-12T09:35:00.677Z,26897
2023-05-12T09:40:00.840Z,26965
2023-05-12T09:45:01.224Z,28920
2023-05-12T09:50:01.259Z,29356
2023-05-12T09:55:00.938Z,28438
2023-05-12T10:00:00.885Z,26158
2023-05-12T10:05:01.870Z,27208
2023-05-12T10:10:01.568Z,29560
2023-05-12T10:15:00.540Z,28721
2023-05-12T10:20:00.556Z,25433
2023-05-12T10:25:00.898Z,35245
2023-05-12T10:30:01.165Z,17310
2023-05-12T10:35:01.740Z,15488
2023-05-12T10:40:00.838Z,21953
2023-05-12T10:45:00.565Z,9430
2023-05-12T10:50:01.090Z,9188
2023-05-12T10:55:00.769Z,13614
2023-05-12T11:00:01.672Z,19939
2023-05-12T11:05:01.199Z,15578
2023-05-12T11:10:01.427Z,8872
2023-05-12T11:15:00.973Z,9559
2023-05-12T11:20:01.179Z,9280
2023-05-12T11:25:00.626Z,9559
2023-05-12T11:30:00.853Z,9559
2023-05-12T11:35:00.750Z,9559
2023-05-12T11:40:00.859Z,9559
2023-05-12T11:45:01.441Z,9559
2023-05-12T11:50:00.729Z,13944
2023-05-12T11:55:00.687Z,15258
2023-05-12T12:00:01.398Z,17382
2023-05-12T12:05:00.914Z,15321
2023-05-12T12:10:00.975Z,11246
2023-05-12T12:15:01.999Z,10007
2023-05-12T12:20:00.794Z,8902
2023-05-12T12:25:00.582Z,8902
2023-05-12T12:30:00.512Z,8902
2023-05-12T12:35:00.814Z,8902
2023-05-12T12:40:00.844Z,8902
2023-05-12T12:45:01.340Z,8902
2023-05-12T12:50:00.750Z,8902
2023-05-12T12:55:00.854Z,7905
2023-05-12T13:00:00.728Z,7905
2023-05-12T13:05:01.201Z,7905
2023-05-12T13:10:02.322Z,7963
2023-05-12T13:15:00.684Z,6978
2023-05-12T13:20:00.626Z,6193
2023-05-12T13:25:00.799Z,3709
2023-05-12T13:30:00.684Z,5753
2023-05-12T13:35:01.027Z,5749
2023-05-12T13:40:00.607Z,5749
2023-05-12T13:45:01.644Z,4106
2023-05-12T13:50:00.938Z,6213
2023-05-12T13:55:00.680Z,6140
2023-05-12T14:00:00.844Z,3235
2023-05-12T14:05:00.917Z,4714
2023-05-12T14:10:01.371Z,5378
2023-05-12T14:15:16.942Z,5378
2023-05-12T14:20:00.605Z,6066
2023-05-12T14:25:00.991Z,6066
2023-05-12T14:30:01.001Z,5150
2023-05-12T14:35:00.603Z,7553
2023-05-12T14:40:00.896Z,5549
2023-05-12T14:45:01.365Z,2215
2023-05-12T14:50:00.963Z,1732
2023-05-12T14:55:00.917Z,2132
2023-05-12T15:00:00.842Z,2821
2023-05-12T15:05:01.042Z,3170
2023-05-12T15:10:01.030Z,3170
2023-05-12T15:15:01.657Z,3170
2023-05-12T15:20:00.681Z,4051
2023-05-12T15:25:00.809Z,6065
2023-05-12T15:30:00.889Z,6065
2023-05-12T15:35:00.569Z,5174
2023-05-12T15:40:01.695Z,5822
2023-05-12T15:45:00.999Z,5822
2023-05-12T15:50:00.507Z,5149
2023-05-12T15:55:00.735Z,5149
2023-05-12T16:00:00.775Z,5149
2023-05-12T16:05:01.069Z,5149
2023-05-12T16:10:00.699Z,5149
2023-05-12T16:15:00.555Z,5107
2023-05-12T16:20:00.589Z,6659
2023-05-12T16:25:00.574Z,3511
2023-05-12T16:30:00.908Z,4610
2023-05-12T16:35:00.745Z,3167
2023-05-12T16:40:00.829Z,3560
2023-05-12T16:45:00.763Z,2596
2023-05-12T16:50:01.783Z,2465
2023-05-12T16:55:00.816Z,2191
2023-05-12T17:00:00.851Z,1949
2023-05-12T17:05:01.567Z,1949
2023-05-12T17:10:00.943Z,1949
2023-05-12T17:15:07.375Z,2921
2023-05-12T17:20:00.951Z,1989
2023-05-12T17:25:00.917Z,2930
2023-05-12T17:30:01.108Z,2930
2023-05-12T17:35:00.668Z,2930
2023-05-12T17:40:01.026Z,2586
2023-05-12T17:45:00.988Z,2271
2023-05-12T17:50:01.122Z,1665
2023-05-12T17:55:00.732Z,1883
2023-05-12T18:00:00.696Z,1883
2023-05-12T18:05:00.870Z,1470
2023-05-12T18:10:00.729Z,1302
2023-05-12T18:15:00.879Z,1158
2023-05-12T18:20:01.193Z,1313
2023-05-12T18:25:00.710Z,1488
2023-05-12T18:30:00.788Z,1322
2023-05-12T18:35:01.524Z,886
2023-05-12T18:40:01.062Z,695
2023-05-12T18:45:00.883Z,549
2023-05-12T18:50:00.986Z,466
2023-05-12T18:55:01.039Z,396
2023-05-12T19:00:00.736Z,335
2023-05-12T19:05:01.665Z,240
2023-05-12T19:10:00.978Z,172
2023-05-12T19:15:00.854Z,146
2023-05-12T19:20:01.836Z,89
2023-05-12T19:25:00.713Z,63
2023-05-12T19:30:00.967Z,38
2023-05-12T19:35:02.354Z,25
2023-05-12T19:40:00.635Z,11
2023-05-12T19:45:00.662Z,11
2023-05-12T19:50:01.436Z,4
2023-05-12T19:55:00.672Z,4
2023-05-12T20:00:01.404Z,4
2023-05-12T20:05:00.940Z,4
2023-05-12T20:10:00.514Z,4
2023-05-12T20:15:00.957Z,4
2023-05-12T20:20:00.806Z,4
2023-05-12T20:25:00.505Z,0
2023-05-12T20:30:00.945Z,0
2023-05-12T20:35:00.532Z,0
2023-05-12T20:40:00.646Z,0
2023-05-12T20:45:00.831Z,0
2023-05-12T20:50:00.825Z,0
2023-05-12T20:55:00.900Z,0
2023-05-12T21:00:01.178Z,0
2023-05-12T21:05:01.298Z,0
2023-05-12T21:10:00.990Z,0
2023-05-12T21:15:03.153Z,0
2023-05-12T21:20:00.759Z,0
2023-05-12T21:25:00.731Z,0
2023-05-12T21:30:00.708Z,0
2023-05-12T21:35:00.780Z,0
2023-05-12T21:40:00.821Z,0
2023-05-12T21:45:00.667Z,0
2023-05-12T21:50:01.064Z,0
2023-05-12T21:55:00.980Z,0
2023-05-12T22:00:01.208Z,0
2023-05-12T22:05:02.842Z,0
2023-05-12T22:10:00.919Z,0
2023-05-12T22:15:00.990Z,0
2023-05-12T22:20:01.335Z,0
2023-05-12T22:25:00.588Z,0
2023-05-12T22:30:00.684Z,0
2023-05-12T22:35:01.673Z,0
2023-05-12T22:40:01.004Z,0
2023-05-12T22:45:01.136Z,0
2023-05-12T22:50:00.895Z,0
2023-05-12T22:55:01.388Z,0
2023-05-12T23:00:00.898Z,0
2023-05-12T23:05:00.539Z,0
2023-05-12T23:10:01.066Z,0
2023-05-12T23:15:01.812Z,0
2023-05-12T23:20:01.095Z,0
2023-05-12T23:25:00.563Z,0
2023-05-12T23:30:00.769Z,0
2023-05-12T23:35:00.952Z,0
2023-05-12T23:40:00.889Z,0
2023-05-12T23:45:00.595Z,0
2023-05-12T23:50:00.872Z,0
2023-05-12T23:55:01.150Z,0
